Time;durP1;ratioP1;P1;durP2;ratioP2;P2;SDS_P1;SDS_P2;PMS_P1;PMS_P2;Temp;Humidity;BMP_temperature;BMP_pressure;BME280_temperature;BME280_humidity;BME280_pressure;Samples;Min_cycle;Max_cycle;Signal;HPM_P1;HPM_P2
2023/03/15 00:01:26;;;;;;;12.20;7.82;;;;;;;8.70;45.36;100128.75;5011519;28;20399;-76
2023/03/15 00:03:53;;;;;;;11.43;7.85;;;;;;;8.58;45.45;100125.66;5011050;28;20396;-77
2023/03/15 00:06:20;;;;;;;13.23;7.72;;;;;;;8.65;45.70;100139.00;5010601;28;20746;-77
2023/03/15 00:08:46;;;;;;;11.05;7.80;;;;;;;8.64;45.72;100132.06;5010711;28;20841;-77
2023/03/15 00:11:15;;;;;;;13.35;8.70;;;;;;;8.67;45.20;100133.56;5010498;28;20391;-77
2023/03/15 00:13:41;;;;;;;11.98;8.18;;;;;;;8.63;45.86;100133.09;5010913;28;20380;-77
2023/03/15 00:16:07;;;;;;;12.27;8.07;;;;;;;8.39;46.41;100129.50;5011411;28;20375;-78
2023/03/15 00:18:32;;;;;;;12.20;8.17;;;;;;;8.34;46.54;100131.00;5012371;28;20376;-77
2023/03/15 00:20:58;;;;;;;13.17;8.87;;;;;;;8.37;46.48;100120.94;5011560;28;20384;-77
2023/03/15 00:23:24;;;;;;;13.18;8.18;;;;;;;8.59;46.02;100129.13;5011886;28;20399;-77
2023/03/15 00:25:51;;;;;;;13.38;8.57;;;;;;;8.65;45.68;100135.56;5011430;28;20478;-77
2023/03/15 00:28:17;;;;;;;13.15;8.40;;;;;;;8.59;45.74;100122.03;5011866;28;20457;-77
2023/03/15 00:30:43;;;;;;;14.87;8.07;;;;;;;8.56;45.43;100117.06;5011848;28;20857;-77
2023/03/15 00:33:12;;;;;;;10.48;8.10;;;;;;;8.55;45.89;100123.38;5011228;28;20860;-77
2023/03/15 00:35:40;;;;;;;11.48;7.57;;;;;;;8.35;45.85;100114.97;5010905;28;20480;-78
2023/03/15 00:38:06;;;;;;;10.20;7.37;;;;;;;8.40;45.81;100109.19;5011375;28;20384;-77
2023/03/15 00:40:31;;;;;;;10.40;7.85;;;;;;;8.61;45.35;100104.19;5011605;28;20384;-76
2023/03/15 00:42:57;;;;;;;11.07;7.28;;;;;;;8.74;44.74;100108.91;5011064;28;20764;-77
2023/03/15 00:45:23;;;;;;;9.57;6.77;;;;;;;8.72;44.76;100104.81;5011461;28;20934;-77
2023/03/15 00:47:50;;;;;;;9.93;6.90;;;;;;;8.84;44.97;100100.78;5011370;28;20780;-76
2023/03/15 00:50:16;;;;;;;12.50;7.35;;;;;;;8.80;44.88;100094.19;5010969;28;20446;-77
2023/03/15 00:52:42;;;;;;;12.93;7.13;;;;;;;8.84;44.53;100094.66;5010026;28;20400;-76
2023/03/15 00:55:15;;;;;;;10.57;7.10;;;;;;;8.94;44.11;100096.06;5010383;28;20461;-76
2023/03/15 00:57:42;;;;;;;10.07;7.03;;;;;;;8.89;44.57;100087.84;5009952;28;20395;-77
2023/03/15 01:00:11;;;;;;;10.38;7.40;;;;;;;8.87;44.08;100089.84;5010785;28;20392;-77
2023/03/15 01:02:36;;;;;;;11.83;7.33;;;;;;;8.93;44.55;100091.81;5010834;28;20970;-77
2023/03/15 01:05:07;;;;;;;12.37;7.73;;;;;;;8.94;44.69;100087.34;5011404;28;20484;-78
2023/03/15 01:07:32;;;;;;;11.70;7.90;;;;;;;8.95;44.38;100099.56;5011507;28;20946;-77
2023/03/15 01:10:00;;;;;;;12.10;8.15;;;;;;;8.95;44.17;100091.63;5010654;28;20396;-77
2023/03/15 01:12:26;;;;;;;65.33;57.20;;;;;;;9.04;44.06;100089.75;5010569;28;20427;-77
2023/03/15 01:14:52;;;;;;;21.80;17.50;;;;;;;9.16;43.96;100097.13;5009499;28;20384;-77
2023/03/15 01:17:17;;;;;;;13.50;9.07;;;;;;;9.10;43.93;100097.81;5010603;28;20399;-77
2023/03/15 01:19:43;;;;;;;13.53;8.00;;;;;;;8.96;44.47;100095.91;5009521;28;20452;-77
2023/03/15 01:22:08;;;;;;;11.77;8.43;;;;;;;8.84;44.48;100089.38;5011055;28;20392;-78
2023/03/15 01:24:34;;;;;;;12.68;7.95;;;;;;;8.95;44.79;100087.16;5010910;28;20495;-77
2023/03/15 01:26:59;;;;;;;11.83;8.10;;;;;;;8.97;44.16;100073.78;5010358;28;20415;-78
2023/03/15 01:29:25;;;;;;;11.17;7.50;;;;;;;9.03;44.48;100072.25;5010803;28;20721;-78
2023/03/15 01:31:50;;;;;;;10.23;7.68;;;;;;;9.07;44.08;100073.53;5010428;28;20876;-78
2023/03/15 01:34:15;;;;;;;11.83;7.50;;;;;;;9.19;43.52;100074.78;5010722;28;20406;-78
2023/03/15 01:36:41;;;;;;;13.60;8.03;;;;;;;9.23;43.34;100075.25;5010877;28;20842;-78
2023/03/15 01:39:06;;;;;;;13.65;8.30;;;;;;;9.12;43.94;100079.13;5010213;28;20400;-78
2023/03/15 01:41:32;;;;;;;11.43;7.97;;;;;;;9.05;44.04;100075.53;5011957;28;20396;-78
2023/03/15 01:43:57;;;;;;;12.35;8.80;;;;;;;9.02;44.11;100079.38;5011984;28;20388;-78
2023/03/15 01:46:32;;;;;;;18.83;12.83;;;;;;;8.95;44.38;100065.19;5011008;28;20411;-77
2023/03/15 01:49:22;;;;;;;16.48;10.20;;;;;;;8.98;44.02;100063.03;5009098;28;20420;-78
2023/03/15 01:51:50;;;;;;;13.20;8.55;;;;;;;9.07;43.38;100055.84;5011049;28;20479;-78
2023/03/15 01:54:24;;;;;;;13.13;8.32;;;;;;;9.01;43.63;100055.75;5012020;28;20426;-77
2023/03/15 01:57:09;;;;;;;14.40;8.30;;;;;;;8.95;43.79;100067.84;5028053;28;20388;-77
2023/03/15 02:00:10;;;;;;;17.67;12.35;;;;;;;8.90;44.06;100065.72;5026906;28;20387;-77
2023/03/15 02:02:52;;;;;;;13.10;9.68;;;;;;;8.90;43.97;100062.25;4993772;28;20403;-78
2023/03/15 02:05:22;;;;;;;15.40;8.50;;;;;;;8.84;43.74;100074.34;5009140;28;20514;-78
2023/03/15 02:07:49;;;;;;;12.23;9.00;;;;;;;8.80;43.79;100071.25;5012467;28;20415;-78
2023/03/15 02:10:22;;;;;;;13.05;8.35;;;;;;;8.83;43.58;100069.25;5012019;28;20403;-78
2023/03/15 02:12:51;;;;;;;14.77;10.07;;;;;;;8.79;43.78;100072.22;5014317;28;20424;-77
2023/03/15 02:15:17;;;;;;;14.75;9.35;;;;;;;8.76;44.02;100066.47;5011438;28;20863;-76
2023/03/15 02:17:45;;;;;;;14.68;9.30;;;;;;;8.72;43.95;100067.81;5012073;28;20856;-77
2023/03/15 02:20:11;;;;;;;15.88;8.65;;;;;;;8.71;44.09;100074.06;5013379;28;20427;-77
2023/03/15 02:22:52;;;;;;;16.13;9.10;;;;;;;8.70;43.92;100067.97;5013413;28;20466;-77
2023/03/15 02:25:43;;;;;;;13.18;8.68;;;;;;;8.75;43.50;100070.94;5011306;28;20438;-77
2023/03/15 02:28:11;;;;;;;12.23;8.63;;;;;;;8.64;44.03;100058.09;5013597;28;21221;-77
2023/03/15 02:30:38;;;;;;;13.68;8.68;;;;;;;8.57;43.83;100054.50;5010946;28;20394;-76
2023/03/15 02:33:08;;;;;;;13.05;9.57;;;;;;;8.51;44.26;100052.56;5013663;28;20779;-77
2023/03/15 02:35:33;;;;;;;13.38;8.85;;;;;;;8.58;44.07;100066.72;5012966;28;20398;-76
2023/03/15 02:38:01;;;;;;;12.53;8.80;;;;;;;8.70;43.70;100054.78;5013122;28;20384;-76
2023/03/15 02:40:28;;;;;;;13.50;9.32;;;;;;;8.69;43.50;100047.00;5013180;28;20469;-76
2023/03/15 02:43:03;;;;;;;13.70;8.90;;;;;;;8.53;43.65;100050.56;5012983;28;20723;-76
2023/03/15 02:45:31;;;;;;;20.85;9.40;;;;;;;8.59;43.36;100066.56;5011995;28;20462;-77
2023/03/15 02:47:58;;;;;;;17.08;9.80;;;;;;;8.69;43.31;100050.47;5013404;28;20396;-76
2023/03/15 02:50:24;;;;;;;17.23;9.85;;;;;;;8.75;42.79;100051.59;5011773;28;20396;-76
2023/03/15 02:52:51;;;;;;;15.53;9.67;;;;;;;8.59;43.21;100049.88;5013230;28;20832;-76
2023/03/15 02:55:18;;;;;;;15.23;9.05;;;;;;;8.60;42.75;100047.03;5012008;28;20998;-76
2023/03/15 02:57:44;;;;;;;14.35;8.45;;;;;;;8.58;43.02;100046.41;5012546;28;20388;-77
2023/03/15 03:00:13;;;;;;;14.20;8.90;;;;;;;8.72;42.87;100049.31;5013004;28;20458;-77
2023/03/15 03:02:39;;;;;;;14.10;8.43;;;;;;;8.77;42.86;100054.91;5012771;28;20434;-76
2023/03/15 03:05:05;;;;;;;16.52;10.50;;;;;;;8.77;42.39;100057.56;5012591;28;20490;-77
2023/03/15 03:07:30;;;;;;;17.03;10.80;;;;;;;8.83;42.32;100054.19;5012571;28;20407;-77
2023/03/15 03:09:56;;;;;;;16.15;10.23;;;;;;;8.75;42.62;100046.31;5012237;28;20396;-77
2023/03/15 03:12:21;;;;;;;14.47;8.87;;;;;;;8.68;42.87;100043.56;5012246;28;20916;-77
2023/03/15 03:14:47;;;;;;;15.03;9.07;;;;;;;8.63;42.83;100047.72;5012198;28;20391;-77
2023/03/15 03:17:13;;;;;;;15.35;8.55;;;;;;;8.68;42.53;100050.63;5011144;28;20472;-77
2023/03/15 03:19:38;;;;;;;19.13;11.75;;;;;;;8.77;42.58;100053.06;5011697;28;20904;-78
2023/03/15 03:22:04;;;;;;;20.27;13.70;;;;;;;8.84;42.58;100055.84;5010807;28;20788;-77
2023/03/15 03:24:30;;;;;;;17.97;11.63;;;;;;;8.86;42.62;100058.28;5012102;28;20396;-77
2023/03/15 03:26:58;;;;;;;15.02;10.32;;;;;;;8.85;42.59;100057.47;5008638;28;20416;-78
2023/03/15 03:29:24;;;;;;;15.03;10.60;;;;;;;8.91;42.90;100056.81;5011078;28;20388;-77
2023/03/15 03:31:50;;;;;;;15.35;10.05;;;;;;;8.92;42.97;100055.78;5012188;28;20482;-77
2023/03/15 03:34:15;;;;;;;17.05;11.30;;;;;;;8.96;42.38;100057.06;5012275;28;20474;-77
2023/03/15 03:36:44;;;;;;;15.13;10.70;;;;;;;8.94;42.63;100056.44;5011694;28;20937;-77
2023/03/15 03:39:09;;;;;;;12.25;9.13;;;;;;;8.86;42.71;100051.22;5011199;28;20399;-77
2023/03/15 03:41:35;;;;;;;14.67;8.83;;;;;;;8.80;42.80;100054.53;5008531;28;20503;-78
2023/03/15 03:44:00;;;;;;;15.18;9.43;;;;;;;8.75;43.14;100047.16;5011886;28;20387;-77
2023/03/15 03:46:27;;;;;;;16.20;10.50;;;;;;;8.76;43.10;100047.97;5011217;28;20924;-77
2023/03/15 03:48:53;;;;;;;15.45;13.65;;;;;;;8.81;43.28;100056.19;5012475;28;20399;-77
2023/03/15 03:51:19;;;;;;;14.23;10.80;;;;;;;8.78;43.64;100038.03;5012077;28;20399;-79
2023/03/15 03:53:44;;;;;;;12.20;8.87;;;;;;;8.71;43.16;100040.53;5012851;28;20449;-78
2023/03/15 03:56:10;;;;;;;13.43;10.02;;;;;;;8.64;43.70;100036.94;5012730;28;20387;-77
2023/03/15 03:58:35;;;;;;;14.67;9.70;;;;;;;8.55;43.92;100033.56;5012480;28;20388;-78
2023/03/15 04:01:02;;;;;;;13.27;9.90;;;;;;;8.45;44.23;100024.19;5013152;28;20471;-77
2023/03/15 04:03:28;;;;;;;16.67;10.10;;;;;;;8.40;44.21;100022.84;5012601;28;20949;-77
2023/03/15 04:05:55;;;;;;;17.45;11.45;;;;;;;8.34;44.24;100023.56;5012463;28;20408;-77
2023/03/15 04:08:21;;;;;;;18.60;13.80;;;;;;;8.43;43.87;100034.94;5012595;28;20380;-76
2023/03/15 04:10:54;;;;;;;18.83;12.13;;;;;;;8.50;43.64;100033.25;5012433;28;20395;-77
2023/03/15 04:13:21;;;;;;;18.65;11.52;;;;;;;8.54;43.88;100018.69;5011349;28;20444;-77
2023/03/15 04:15:46;;;;;;;22.00;13.95;;;;;;;8.47;44.00;100020.38;5012049;28;20457;-77
2023/03/15 04:18:13;;;;;;;20.90;14.15;;;;;;;8.47;44.53;100019.56;5012413;28;20850;-77
2023/03/15 04:20:45;;;;;;;23.42;15.25;;;;;;;8.47;44.31;100022.22;5012035;28;20797;-77
2023/03/15 04:23:33;;;;;;;27.85;19.20;;;;;;;8.54;44.30;100010.78;5010988;28;20458;-76
2023/03/15 04:25:58;;;;;;;25.48;18.48;;;;;;;8.60;44.39;100015.34;5010601;28;20423;-77
2023/03/15 04:28:24;;;;;;;22.47;15.77;;;;;;;8.68;43.84;100022.41;5014079;28;20406;-77
2023/03/15 04:30:50;;;;;;;23.47;14.87;;;;;;;8.60;44.68;100017.97;5009906;28;20395;-77
2023/03/15 04:33:16;;;;;;;26.85;19.85;;;;;;;8.64;44.64;100029.03;5011727;28;20392;-77
2023/03/15 04:35:41;;;;;;;31.35;25.08;;;;;;;8.65;44.84;100021.94;5010531;28;20416;-78
2023/03/15 04:38:07;;;;;;;35.53;16.38;;;;;;;8.54;44.74;100002.03;5009870;28;20458;-77
2023/03/15 04:40:34;;;;;;;26.05;14.27;;;;;;;8.31;45.29;99997.47;5011380;28;20402;-77
2023/03/15 04:43:02;;;;;;;25.73;14.60;;;;;;;8.26;45.42;100001.63;5012005;28;20388;-76
2023/03/15 04:45:30;;;;;;;24.17;15.50;;;;;;;8.31;45.14;100007.22;5010845;28;20490;-77
2023/03/15 04:47:56;;;;;;;25.90;15.05;;;;;;;8.38;45.15;100005.53;5009373;28;20495;-76
2023/03/15 04:50:22;;;;;;;26.90;11.97;;;;;;;8.27;44.50;99995.38;5010681;28;20455;-76
2023/03/15 04:52:48;;;;;;;22.80;14.43;;;;;;;8.23;44.33;99993.06;5010876;28;20569;-77
2023/03/15 04:55:13;;;;;;;20.05;11.90;;;;;;;8.34;43.81;99994.50;5009985;28;20503;-77
2023/03/15 04:57:39;;;;;;;16.42;11.15;;;;;;;8.47;43.59;99993.97;5010277;28;20412;-76
2023/03/15 05:00:09;;;;;;;15.70;10.80;;;;;;;8.60;42.80;99991.56;5010294;28;20409;-77
2023/03/15 05:02:38;;;;;;;22.90;18.15;;;;;;;8.68;42.85;99990.72;5008191;28;20399;-77
2023/03/15 05:05:05;;;;;;;23.38;13.00;;;;;;;8.74;43.00;99997.94;5021248;28;20476;-77
2023/03/15 05:07:32;;;;;;;21.13;13.70;;;;;;;8.82;43.18;99997.03;5026907;28;20406;-78
2023/03/15 05:09:58;;;;;;;34.75;14.00;;;;;;;8.81;43.50;99992.75;5013497;28;20400;-78
2023/03/15 05:12:24;;;;;;;19.50;14.77;;;;;;;8.87;42.69;100002.63;5014296;28;20431;-76
2023/03/15 05:14:49;;;;;;;15.63;9.93;;;;;;;8.89;42.83;100002.44;5009634;28;20384;-78
2023/03/15 05:17:16;;;;;;;18.50;11.98;;;;;;;8.91;43.21;100001.28;5010681;28;20412;-77
2023/03/15 05:19:42;;;;;;;17.70;12.27;;;;;;;9.03;42.78;100006.97;5010701;28;20402;-77
2023/03/15 05:22:07;;;;;;;20.43;13.07;;;;;;;9.09;42.68;99998.34;5010968;28;20408;-76
2023/03/15 05:24:33;;;;;;;18.08;12.75;;;;;;;9.07;43.23;99983.66;5010037;28;20380;-77
2023/03/15 05:26:59;;;;;;;16.00;9.30;;;;;;;8.98;43.27;99978.44;5011596;28;20423;-76
2023/03/15 05:29:24;;;;;;;14.27;9.57;;;;;;;8.96;42.89;99975.13;5012694;28;20407;-76
2023/03/15 05:31:51;;;;;;;14.33;9.23;;;;;;;8.96;43.67;99984.88;5028847;28;20396;-76
2023/03/15 05:34:17;;;;;;;13.07;7.93;;;;;;;9.09;42.49;99985.13;5043881;28;20388;-77
2023/03/15 05:36:43;;;;;;;19.45;9.27;;;;;;;9.29;42.30;100003.13;5034416;28;20392;-78
2023/03/15 05:39:10;;;;;;;22.65;10.07;;;;;;;9.32;42.16;100003.56;5021534;28;20495;-78
2023/03/15 05:41:36;;;;;;;13.93;8.93;;;;;;;9.23;42.24;100006.47;5011551;28;20404;-77
2023/03/15 05:44:01;;;;;;;23.17;14.13;;;;;;;9.18;42.71;100007.84;5009568;28;20466;-76
2023/03/15 05:46:27;;;;;;;33.30;18.57;;;;;;;9.13;43.21;99993.53;5012824;28;20701;-76
2023/03/15 05:48:52;;;;;;;27.08;15.90;;;;;;;9.13;42.93;100001.47;5011894;28;20399;-79
2023/03/15 05:51:18;;;;;;;27.10;16.00;;;;;;;9.25;42.74;99996.53;5013312;28;20741;-77
2023/03/15 05:53:44;;;;;;;13.25;7.78;;;;;;;9.26;42.43;99993.72;5019612;28;20461;-77
2023/03/15 05:56:09;;;;;;;13.07;7.63;;;;;;;9.23;41.38;99995.91;5006777;28;22455;-78
2023/03/15 05:58:36;;;;;;;19.60;10.70;;;;;;;9.34;41.51;99990.19;5017125;28;20889;-78
2023/03/15 06:01:03;;;;;;;21.83;9.43;;;;;;;9.34;40.99;99977.75;5011960;28;20430;-78
2023/03/15 06:03:33;;;;;;;15.65;7.05;;;;;;;9.33;40.60;99978.78;5022418;28;20439;-77
2023/03/15 06:05:58;;;;;;;13.18;7.00;;;;;;;9.32;40.85;99966.56;5005321;28;20418;-79
2023/03/15 06:08:24;;;;;;;10.32;5.88;;;;;;;9.35;39.76;99976.78;5005101;28;20394;-78
2023/03/15 06:10:50;;;;;;;12.43;6.15;;;;;;;9.29;39.84;99985.44;5030626;28;20456;-78
2023/03/15 06:13:15;;;;;;;9.82;6.35;;;;;;;9.34;40.23;99998.94;5023396;28;20788;-79
2023/03/15 06:15:41;;;;;;;9.95;6.30;;;;;;;9.42;40.50;99984.81;5024104;28;20394;-78
2023/03/15 06:18:07;;;;;;;13.00;6.43;;;;;;;9.53;40.38;99987.03;5031270;28;20383;-78
2023/03/15 06:20:33;;;;;;;15.27;6.60;;;;;;;9.56;40.30;99976.09;5031603;28;20389;-77
2023/03/15 06:22:58;;;;;;;9.83;5.90;;;;;;;9.55;39.91;99982.38;5026474;28;20403;-77
2023/03/15 06:25:24;;;;;;;11.70;5.57;;;;;;;9.44;39.41;99968.78;5033278;28;20379;-79
2023/03/15 06:27:50;;;;;;;12.38;5.90;;;;;;;9.41;39.14;99980.53;5032588;28;20492;-77
2023/03/15 06:30:16;;;;;;;10.55;5.93;;;;;;;9.42;39.23;99984.81;5028668;28;20386;-77
2023/03/15 06:32:41;;;;;;;10.98;5.35;;;;;;;9.55;38.95;99994.78;5030288;28;20389;-78
2023/03/15 06:35:07;;;;;;;11.10;6.88;;;;;;;9.70;38.65;99992.94;5028705;28;20387;-77
2023/03/15 06:37:34;;;;;;;7.82;5.65;;;;;;;9.74;38.40;99977.53;5019560;28;20375;-78
2023/03/15 06:40:10;;;;;;;10.13;5.82;;;;;;;9.78;38.21;99976.19;5028573;28;20376;-77
2023/03/15 06:42:37;;;;;;;30.95;19.23;;;;;;;9.83;38.66;99986.19;5022922;28;20388;-77
2023/03/15 06:45:04;;;;;;;9.37;6.27;;;;;;;9.98;38.88;99994.16;5023676;28;20453;-76
2023/03/15 06:47:30;;;;;;;16.63;7.40;;;;;;;10.10;38.15;100013.84;5017186;28;20410;-77
2023/03/15 06:49:55;;;;;;;12.80;5.73;;;;;;;10.06;38.17;100015.22;5022921;28;20395;-77
2023/03/15 06:52:21;;;;;;;13.33;6.37;;;;;;;9.95;38.33;100013.88;5021469;28;20859;-79
2023/03/15 06:54:46;;;;;;;13.15;6.07;;;;;;;9.99;38.35;100001.06;5029244;28;20390;-78
2023/03/15 06:57:12;;;;;;;9.50;6.40;;;;;;;10.13;37.73;100002.91;5022232;28;20374;-77
2023/03/15 06:59:38;;;;;;;14.33;6.90;;;;;;;10.29;37.95;100009.81;5020980;28;20422;-77
2023/03/15 07:02:03;;;;;;;9.93;6.13;;;;;;;10.30;37.68;100016.78;5034346;28;20874;-78
2023/03/15 07:04:29;;;;;;;9.07;5.53;;;;;;;10.32;37.42;100030.69;5034291;28;20417;-77
2023/03/15 07:06:54;;;;;;;12.40;6.00;;;;;;;10.39;37.49;100033.38;5048454;28;20405;-78
2023/03/15 07:09:20;;;;;;;11.15;5.97;;;;;;;10.56;37.15;100020.75;5034124;28;20390;-78
2023/03/15 07:11:46;;;;;;;7.63;4.97;;;;;;;10.54;36.64;100013.00;5034167;28;20792;-77
2023/03/15 07:14:11;;;;;;;11.10;6.30;;;;;;;10.52;36.76;100007.06;5033917;28;20424;-77
2023/03/15 07:16:37;;;;;;;8.40;5.60;;;;;;;10.53;36.76;100011.34;5034643;28;20374;-76
2023/03/15 07:19:02;;;;;;;9.23;5.55;;;;;;;10.57;36.88;100007.34;5034122;28;20382;-78
2023/03/15 07:21:28;;;;;;;9.55;5.65;;;;;;;10.56;36.27;99996.91;5034695;28;20465;-78
2023/03/15 07:23:54;;;;;;;11.67;6.13;;;;;;;10.68;36.18;100009.47;5033926;28;20370;-77
2023/03/15 07:26:20;;;;;;;9.27;4.87;;;;;;;10.75;36.03;100014.84;5035009;28;20445;-78
2023/03/15 07:28:45;;;;;;;9.43;5.53;;;;;;;10.92;35.75;99998.69;5035216;28;20973;-77
2023/03/15 07:31:11;;;;;;;10.00;5.57;;;;;;;10.95;35.43;99991.19;5033576;28;20418;-78
2023/03/15 07:33:37;;;;;;;10.00;5.63;;;;;;;11.04;35.42;100015.75;5031953;28;20513;-78
2023/03/15 07:36:04;;;;;;;11.20;6.10;;;;;;;11.08;35.58;100015.16;5024270;28;20401;-78
2023/03/15 07:38:32;;;;;;;11.80;6.55;;;;;;;11.11;35.68;100013.97;5034710;28;20882;-78
2023/03/15 07:41:00;;;;;;;12.80;6.63;;;;;;;11.13;35.42;100017.25;5025696;28;20384;-77
2023/03/15 07:43:25;;;;;;;10.32;5.40;;;;;;;10.75;35.45;100014.84;5017099;28;20439;-78
2023/03/15 07:45:51;;;;;;;14.57;9.13;;;;;;;10.80;36.23;100024.88;5035875;28;20622;-77
2023/03/15 07:48:17;;;;;;;14.02;6.22;;;;;;;10.74;35.82;100013.22;5033927;28;20811;-76
2023/03/15 07:50:42;;;;;;;10.37;6.33;;;;;;;10.54;35.96;100022.78;5033442;28;20548;-78
2023/03/15 07:53:08;;;;;;;12.37;6.03;;;;;;;10.26;36.43;100016.31;5030186;28;20764;-77
2023/03/15 07:55:34;;;;;;;11.60;5.95;;;;;;;10.51;36.86;100014.19;5025616;28;20387;-77
2023/03/15 07:58:00;;;;;;;12.48;6.70;;;;;;;10.62;36.73;100012.88;5034515;28;20402;-77
2023/03/15 08:00:26;;;;;;;12.57;7.72;;;;;;;10.79;36.59;100023.25;5033528;28;20385;-79
2023/03/15 08:02:51;;;;;;;14.05;7.18;;;;;;;10.86;36.88;100013.53;5033695;28;20383;-77
2023/03/15 08:05:20;;;;;;;16.45;8.50;;;;;;;10.83;36.95;100004.13;5032424;28;20462;-77
2023/03/15 08:07:46;;;;;;;11.40;7.65;;;;;;;10.76;37.09;100002.41;5032259;28;21091;-77
2023/03/15 08:10:13;;;;;;;11.85;7.32;;;;;;;10.55;37.63;100011.16;5033456;28;20378;-79
2023/03/15 08:12:41;;;;;;;13.57;7.03;;;;;;;10.13;38.72;100016.94;5028718;28;20408;-77
2023/03/15 08:15:14;;;;;;;9.07;6.32;;;;;;;10.39;38.42;100018.34;5026910;28;20386;-78
2023/03/15 08:17:41;;;;;;;13.20;7.20;;;;;;;10.46;38.20;100021.03;5032974;28;20736;-78
2023/03/15 08:20:13;;;;;;;11.40;7.38;;;;;;;10.86;37.81;100027.63;5033355;28;20457;-79
2023/03/15 08:22:43;;;;;;;12.40;6.85;;;;;;;10.90;37.46;100030.72;5028441;28;20376;-78
2023/03/15 08:25:10;;;;;;;11.18;6.95;;;;;;;10.94;37.43;100026.66;5031565;28;20390;-78
2023/03/15 08:27:36;;;;;;;10.25;6.03;;;;;;;10.92;37.27;100023.38;5032586;28;20405;-77
2023/03/15 08:30:02;;;;;;;11.05;6.15;;;;;;;10.88;37.51;100011.53;5031722;28;20449;-77
2023/03/15 08:32:28;;;;;;;11.65;6.10;;;;;;;10.89;37.64;100015.78;5029993;28;20376;-77
2023/03/15 08:34:54;;;;;;;8.07;5.77;;;;;;;10.93;37.27;100021.53;5031821;28;20383;-78
2023/03/15 08:37:19;;;;;;;10.27;5.87;;;;;;;10.90;36.93;100012.97;5028428;28;20451;-78
2023/03/15 08:39:45;;;;;;;7.35;5.13;;;;;;;10.96;37.21;100010.56;5000471;28;20718;-78
2023/03/15 08:42:11;;;;;;;11.40;6.22;;;;;;;11.08;36.85;100012.50;5026889;28;20379;-77
2023/03/15 08:44:36;;;;;;;10.77;5.77;;;;;;;11.18;36.72;100014.84;5033591;28;20386;-78
2023/03/15 08:47:01;;;;;;;7.00;5.10;;;;;;;11.14;36.80;100020.72;5033188;28;20588;-76
2023/03/15 08:49:27;;;;;;;8.47;4.33;;;;;;;11.00;36.63;100017.13;5034172;28;20386;-78
2023/03/15 08:51:52;;;;;;;7.53;4.67;;;;;;;11.14;37.08;100018.06;5034305;28;20378;-78
2023/03/15 08:54:18;;;;;;;6.90;4.33;;;;;;;11.26;36.73;100025.31;5034129;28;20855;-76
2023/03/15 08:56:43;;;;;;;11.13;4.73;;;;;;;11.29;36.51;100010.88;5033970;28;20780;-79
2023/03/15 08:59:09;;;;;;;8.93;4.68;;;;;;;11.29;36.45;100002.91;5033355;28;20386;-77
2023/03/15 09:01:35;;;;;;;7.82;4.75;;;;;;;11.22;36.44;100004.69;5043955;28;20429;-78
2023/03/15 09:04:01;;;;;;;7.87;4.37;;;;;;;11.27;36.56;100002.25;5053325;28;20383;-77
2023/03/15 09:06:27;;;;;;;6.35;4.10;;;;;;;11.20;36.75;100001.38;5052456;28;20470;-77
2023/03/15 09:08:54;;;;;;;10.13;4.13;;;;;;;10.78;37.69;100003.03;5040921;28;20470;-79
2023/03/15 09:11:20;;;;;;;10.20;4.88;;;;;;;10.74;37.72;99981.41;5035114;28;20393;-77
2023/03/15 09:13:46;;;;;;;7.03;4.43;;;;;;;10.89;37.93;99981.31;5033320;28;20383;-78
2023/03/15 09:16:11;;;;;;;8.53;5.00;;;;;;;10.99;38.08;99979.19;5033639;28;20366;-78
2023/03/15 09:18:39;;;;;;;8.85;4.75;;;;;;;11.10;38.14;99978.66;5035189;28;20401;-78
2023/03/15 09:21:05;;;;;;;8.47;5.20;;;;;;;10.96;38.20;99990.16;5034353;28;20402;-78
2023/03/15 09:23:31;;;;;;;8.40;5.53;;;;;;;10.92;38.06;99996.88;5035028;28;20813;-79
2023/03/15 09:25:57;;;;;;;9.38;5.18;;;;;;;11.28;37.67;99999.41;5035933;28;20378;-78
2023/03/15 09:28:24;;;;;;;7.75;5.18;;;;;;;11.27;37.53;100013.72;5033334;28;20386;-77
2023/03/15 09:30:50;;;;;;;9.73;5.60;;;;;;;11.01;37.68;100016.94;5031817;28;20467;-78
2023/03/15 09:33:15;;;;;;;8.32;5.25;;;;;;;11.33;37.83;100014.78;5032753;28;20842;-77
2023/03/15 09:35:41;;;;;;;8.67;5.40;;;;;;;11.47;37.37;100019.16;5033325;28;20473;-78
2023/03/15 09:38:07;;;;;;;7.88;5.38;;;;;;;11.33;37.69;100009.47;5033065;28;20413;-77
2023/03/15 09:40:44;;;;;;;10.98;6.15;;;;;;;11.39;37.56;100015.81;5033143;28;20414;-77
2023/03/15 09:43:32;;;;;;;9.73;6.38;;;;;;;11.51;37.54;100010.81;5029527;28;20941;-78
2023/03/15 09:46:30;;;;;;;10.03;6.53;;;;;;;11.36;37.89;100005.59;5032383;28;20378;-75
2023/03/15 09:49:08;;;;;;;12.70;7.17;;;;;;;11.57;37.57;99999.41;5032238;28;20375;-77
2023/03/15 09:51:50;;;;;;;10.77;6.40;;;;;;;11.39;37.66;99994.59;5031755;28;20390;-78
2023/03/15 09:54:36;;;;;;;10.07;6.60;;;;;;;11.62;37.71;99991.69;5032384;28;20416;-79
2023/03/15 09:57:13;;;;;;;9.90;6.45;;;;;;;11.33;38.05;100006.00;5030795;28;20398;-77
2023/03/15 09:59:42;;;;;;;14.13;7.63;;;;;;;11.61;37.71;100005.97;5030972;28;20463;-77
2023/03/15 10:02:18;;;;;;;10.25;6.82;;;;;;;11.50;37.10;100002.03;5031660;28;20886;-77
2023/03/15 10:04:46;;;;;;;9.20;6.05;;;;;;;11.52;37.52;100000.00;5031809;28;20470;-77
2023/03/15 10:07:15;;;;;;;9.88;6.10;;;;;;;11.54;37.29;100005.09;5031290;28;20767;-78
2023/03/15 10:09:42;;;;;;;8.57;5.93;;;;;;;11.31;37.88;100006.19;5032019;28;20379;-78
2023/03/15 10:12:20;;;;;;;10.45;6.97;;;;;;;11.39;37.91;100008.69;5031670;28;20402;-77
2023/03/15 10:15:15;;;;;;;12.93;6.50;;;;;;;11.51;37.41;100001.03;5032320;28;20440;-78
2023/03/15 10:17:58;;;;;;;14.35;6.68;;;;;;;11.70;37.42;100004.81;5032345;28;20393;-77
2023/03/15 10:20:28;;;;;;;11.83;6.43;;;;;;;11.76;37.50;99996.06;5033054;28;20378;-77
2023/03/15 10:23:09;;;;;;;9.93;6.00;;;;;;;11.56;37.50;99988.00;5031518;28;20374;-77
2023/03/15 10:25:37;;;;;;;11.00;6.28;;;;;;;11.67;37.38;99987.44;5031811;28;20886;-77
2023/03/15 10:28:27;;;;;;;10.52;6.07;;;;;;;11.83;37.01;99988.16;5033042;28;20464;-76
2023/03/15 10:30:56;;;;;;;11.82;6.07;;;;;;;11.90;36.55;99991.66;5038529;28;20385;-79
2023/03/15 10:33:40;;;;;;;10.52;5.55;;;;;;;12.20;36.15;100000.19;5037735;28;20400;-78
2023/03/15 10:36:24;;;;;;;8.18;5.00;;;;;;;12.00;35.53;99993.97;5036818;28;20378;-78
2023/03/15 10:38:50;;;;;;;8.82;4.95;;;;;;;11.91;35.51;99997.81;5037686;28;20441;-78
2023/03/15 10:41:37;;;;;;;7.20;4.35;;;;;;;11.97;34.91;100003.16;5053218;28;20469;-78
2023/03/15 10:44:05;;;;;;;8.48;4.75;;;;;;;12.04;34.70;100000.53;5036713;28;20398;-78
2023/03/15 10:46:31;;;;;;;11.35;6.25;;;;;;;11.93;35.72;99999.25;5037399;28;20417;-80
2023/03/15 10:48:59;;;;;;;10.30;6.67;;;;;;;12.14;35.66;99976.28;5036637;28;20443;-78
2023/03/15 10:51:36;;;;;;;14.45;8.30;;;;;;;12.14;35.94;99971.78;5035170;28;20855;-78
2023/03/15 10:54:05;;;;;;;11.80;7.28;;;;;;;12.10;36.05;99967.88;5036965;28;20378;-80
2023/03/15 10:56:36;;;;;;;9.23;6.47;;;;;;;12.25;35.98;99986.31;5037160;28;20374;-77
2023/03/15 10:59:02;;;;;;;13.88;8.18;;;;;;;12.38;35.97;99999.66;5037184;28;20386;-80
2023/03/15 11:01:36;;;;;;;13.52;9.10;;;;;;;12.58;35.80;99993.59;5037282;28;20393;-79
2023/03/15 11:04:29;;;;;;;27.43;12.23;;;;;;;12.46;36.14;99992.53;5053330;28;20436;-78
2023/03/15 11:06:57;;;;;;;7.25;4.78;;;;;;;12.25;36.04;99973.03;5036625;28;20746;-81
2023/03/15 11:09:25;;;;;;;7.43;4.18;;;;;;;12.32;35.88;99973.06;5038524;28;20916;-80
2023/03/15 11:11:57;;;;;;;8.55;5.55;;;;;;;12.42;35.75;99969.00;5036802;28;20434;-80
2023/03/15 11:14:23;;;;;;;8.25;4.40;;;;;;;12.28;35.83;99971.81;5036262;28;20516;-78
2023/03/15 11:16:52;;;;;;;7.93;4.30;;;;;;;12.32;36.04;99973.88;5030969;28;20419;-78
2023/03/15 11:19:32;;;;;;;10.82;5.10;;;;;;;12.45;36.28;99970.44;5015898;28;20885;-77
2023/03/15 11:22:01;;;;;;;7.80;4.55;;;;;;;12.40;36.24;99970.22;5015192;28;20784;-78
2023/03/15 11:24:32;;;;;;;11.82;7.45;;;;;;;12.55;36.30;99970.03;5015948;28;20395;-78
2023/03/15 11:27:02;;;;;;;13.88;7.55;;;;;;;12.51;36.39;99966.16;5015943;28;20867;-78
2023/03/15 11:29:27;;;;;;;14.82;5.55;;;;;;;12.49;36.16;99961.03;5015564;28;20453;-79